Time;durP1;ratioP1;P1;durP2;ratioP2;P2;SDS_P1;SDS_P2;PMS_P1;PMS_P2;Temp;Humidity;BMP_temperature;BMP_pressure;BME280_temperature;BME280_humidity;BME280_pressure;Samples;Min_cycle;Max_cycle;Signal;HPM_P1;HPM_P2
2023/03/03 00:02:12;;;;;;;1.88;1.30;;;26.70;64.70;;;;;;5118701;23;20032;-48
2023/03/03 00:04:35;;;;;;;2.13;0.95;;;26.80;64.70;;;;;;5121113;23;20020;-50
2023/03/03 00:06:57;;;;;;;1.17;0.90;;;26.80;64.70;;;;;;5087438;23;20013;-48
2023/03/03 00:09:20;;;;;;;4.05;0.93;;;26.80;64.70;;;;;;5118763;23;20063;-49
2023/03/03 00:11:42;;;;;;;3.65;1.40;;;26.80;64.70;;;;;;5118757;23;20023;-45
2023/03/03 00:14:23;;;;;;;1.42;0.88;;;26.80;64.70;;;;;;5119430;23;20522;-47
2023/03/03 00:16:48;;;;;;;2.22;0.90;;;26.80;64.70;;;;;;5096731;23;20727;-46
2023/03/03 00:19:19;;;;;;;2.58;0.90;;;26.80;64.70;;;;;;5118458;23;20021;-50
2023/03/03 00:21:44;;;;;;;1.23;0.85;;;26.80;64.70;;;;;;5118236;23;20366;-46
2023/03/03 00:24:37;;;;;;;1.20;0.90;;;26.80;64.60;;;;;;5119410;23;20322;-45
2023/03/03 00:27:08;;;;;;;1.80;1.00;;;26.80;64.60;;;;;;5120539;23;20009;-48
2023/03/03 00:29:38;;;;;;;1.45;0.80;;;26.80;64.70;;;;;;5118673;23;20067;-48
2023/03/03 00:32:43;;;;;;;2.10;1.10;;;26.80;64.70;;;;;;5118959;23;20490;-45
2023/03/03 00:35:26;;;;;;;1.40;0.70;;;26.80;64.80;;;;;;5117396;23;20024;-49
2023/03/03 00:38:00;;;;;;;2.15;1.10;;;26.80;64.80;;;;;;5110627;23;20032;-48
2023/03/03 00:40:41;;;;;;;0.98;0.80;;;26.80;64.80;;;;;;5090352;23;20022;-48
2023/03/03 00:43:18;;;;;;;2.65;1.33;;;26.80;64.80;;;;;;5088155;23;20016;-45
2023/03/03 00:45:54;;;;;;;2.35;0.90;;;26.80;64.80;;;;;;5118010;23;20084;-48
2023/03/03 00:48:29;;;;;;;1.38;0.85;;;26.80;64.90;;;;;;5117607;23;20067;-44
2023/03/03 00:51:08;;;;;;;3.38;1.00;;;26.80;64.80;;;;;;5118709;23;20017;-44
2023/03/03 00:53:31;;;;;;;2.45;0.90;;;26.80;64.90;;;;;;5120376;23;20058;-44
2023/03/03 00:55:54;;;;;;;3.08;0.82;;;26.80;64.80;;;;;;5118173;23;20033;-49
2023/03/03 00:58:17;;;;;;;1.38;0.90;;;26.80;65.00;;;;;;5118300;23;20024;-47
2023/03/03 01:00:41;;;;;;;1.55;0.73;;;26.80;65.00;;;;;;5116632;23;20104;-46
2023/03/03 01:03:08;;;;;;;3.20;1.33;;;26.80;64.90;;;;;;5117048;23;20042;-46
2023/03/03 01:05:31;;;;;;;4.22;1.23;;;26.80;64.90;;;;;;5116713;23;20280;-48
2023/03/03 01:07:53;;;;;;;2.00;1.00;;;26.80;64.90;;;;;;5116254;23;20020;-50
2023/03/03 01:10:15;;;;;;;2.22;1.40;;;26.80;64.90;;;;;;5117767;23;20017;-47
2023/03/03 01:12:38;;;;;;;2.25;1.38;;;26.80;64.90;;;;;;5087132;23;20029;-46
2023/03/03 01:15:01;;;;;;;1.85;1.05;;;26.80;64.90;;;;;;5116758;23;20347;-48
2023/03/03 01:17:24;;;;;;;1.45;1.00;;;26.80;65.00;;;;;;5121320;23;20020;-46
2023/03/03 01:19:46;;;;;;;3.20;1.50;;;26.80;64.90;;;;;;5139436;23;20020;-46
2023/03/03 01:22:08;;;;;;;2.60;1.23;;;26.80;65.00;;;;;;5142036;23;20462;-45
2023/03/03 01:24:31;;;;;;;1.52;1.15;;;26.80;65.00;;;;;;5142505;23;20016;-49
2023/03/03 01:26:53;;;;;;;1.08;0.98;;;26.80;65.10;;;;;;5144006;23;20055;-46
2023/03/03 01:29:16;;;;;;;2.58;1.20;;;26.80;65.00;;;;;;5142913;23;20030;-44
2023/03/03 01:31:39;;;;;;;1.77;1.08;;;26.80;65.10;;;;;;5141501;23;20020;-46
2023/03/03 01:34:01;;;;;;;2.63;1.10;;;26.80;65.10;;;;;;5133480;23;20012;-46
2023/03/03 01:36:25;;;;;;;1.83;1.00;;;26.80;65.10;;;;;;5143313;23;20024;-46
2023/03/03 01:38:48;;;;;;;2.55;0.98;;;26.80;65.20;;;;;;5142374;23;20395;-47
2023/03/03 01:41:10;;;;;;;2.25;1.10;;;26.80;65.20;;;;;;5141542;23;20023;-47
2023/03/03 01:43:33;;;;;;;2.92;1.17;;;26.80;65.20;;;;;;5143431;22;20012;-43
2023/03/03 01:45:58;;;;;;;1.63;1.30;;;26.80;65.30;;;;;;5143139;23;20040;-46
2023/03/03 01:48:30;;;;;;;2.75;1.10;;;26.70;65.40;;;;;;5142095;23;20013;-45
2023/03/03 01:51:02;;;;;;;4.50;1.20;;;26.80;65.50;;;;;;5143550;23;20082;-45
2023/03/03 01:53:48;;;;;;;1.10;0.80;;;26.80;65.40;;;;;;5143569;23;20016;-46
2023/03/03 01:56:11;;;;;;;2.10;1.17;;;26.80;65.40;;;;;;5134834;23;20467;-42
2023/03/03 01:58:45;;;;;;;2.30;0.90;;;26.80;65.50;;;;;;5144056;23;20618;-43
2023/03/03 02:01:15;;;;;;;1.30;0.95;;;26.90;65.60;;;;;;5143841;23;20293;-43
2023/03/03 02:03:37;;;;;;;0.82;0.82;;;26.90;65.50;;;;;;5142099;23;20017;-45
2023/03/03 02:06:05;;;;;;;2.88;1.10;;;26.90;65.60;;;;;;5144376;23;20016;-47
2023/03/03 02:08:36;;;;;;;0.85;0.60;;;26.90;65.50;;;;;;5142968;23;20542;-46
2023/03/03 02:10:58;;;;;;;2.03;0.70;;;27.00;65.70;;;;;;5143098;23;20023;-50
2023/03/03 02:13:21;;;;;;;1.08;0.80;;;26.90;65.80;;;;;;5136407;23;20023;-45
2023/03/03 02:15:43;;;;;;;0.88;0.70;;;27.00;65.90;;;;;;5143126;23;20025;-45
2023/03/03 02:18:12;;;;;;;1.75;0.65;;;27.00;65.90;;;;;;5143981;23;20024;-45
2023/03/03 02:20:43;;;;;;;3.45;0.98;;;27.10;66.10;;;;;;5143859;23;20560;-45
2023/03/03 02:23:05;;;;;;;0.95;0.85;;;27.10;65.60;;;;;;5134860;23;20047;-45
2023/03/03 02:26:03;;;;;;;1.05;0.73;;;27.10;65.50;;;;;;5142759;23;20455;-42
2023/03/03 02:28:30;;;;;;;0.90;0.50;;;27.10;65.40;;;;;;5129772;23;20493;-45
2023/03/03 02:30:58;;;;;;;1.05;0.70;;;27.10;65.50;;;;;;5144624;23;20371;-44
2023/03/03 02:33:20;;;;;;;1.63;0.65;;;27.20;65.80;;;;;;5142907;23;20342;-43
2023/03/03 02:35:43;;;;;;;2.15;0.70;;;27.20;65.80;;;;;;5135370;23;20025;-46
2023/03/03 02:38:29;;;;;;;1.17;0.60;;;27.20;66.10;;;;;;5141912;23;20008;-44
2023/03/03 02:41:13;;;;;;;0.65;0.60;;;27.30;66.00;;;;;;5144465;23;20027;-50
2023/03/03 02:43:46;;;;;;;0.60;0.50;;;27.30;65.80;;;;;;5135802;23;20040;-48
2023/03/03 02:46:08;;;;;;;0.60;0.57;;;27.40;65.60;;;;;;5134150;23;20103;-44
2023/03/03 02:48:30;;;;;;;0.75;0.60;;;27.40;65.60;;;;;;5143344;23;20095;-45
2023/03/03 02:50:53;;;;;;;1.33;0.60;;;27.40;65.40;;;;;;5143183;23;20016;-44
2023/03/03 02:53:15;;;;;;;1.05;0.70;;;27.50;65.30;;;;;;5113728;23;20016;-51
2023/03/03 02:55:38;;;;;;;1.63;0.70;;;27.50;65.30;;;;;;5141562;23;20415;-47
2023/03/03 02:58:00;;;;;;;1.45;0.70;;;27.50;65.20;;;;;;5141730;23;20008;-46
2023/03/03 03:00:23;;;;;;;0.75;0.45;;;27.50;65.20;;;;;;5142512;23;20028;-44
2023/03/03 03:02:45;;;;;;;1.15;0.55;;;27.50;65.10;;;;;;5142549;23;20545;-49
2023/03/03 03:05:08;;;;;;;0.73;0.50;;;27.50;65.10;;;;;;5143022;23;20066;-46
2023/03/03 03:07:30;;;;;;;0.45;0.30;;;27.50;65.00;;;;;;5134951;23;20047;-48
2023/03/03 03:09:54;;;;;;;0.68;0.52;;;27.50;65.00;;;;;;5142866;23;20116;-48
2023/03/03 03:12:18;;;;;;;0.47;0.40;;;27.60;65.00;;;;;;5134770;23;20255;-46
2023/03/03 03:14:40;;;;;;;1.27;0.50;;;27.60;64.90;;;;;;5133788;23;20096;-46
2023/03/03 03:17:03;;;;;;;3.60;0.52;;;27.60;64.80;;;;;;5140856;23;20103;-49
2023/03/03 03:19:26;;;;;;;0.85;0.55;;;27.60;64.80;;;;;;5141350;23;20019;-47
2023/03/03 03:21:48;;;;;;;1.80;0.40;;;27.60;64.80;;;;;;5140051;23;20025;-47
2023/03/03 03:24:11;;;;;;;0.93;0.35;;;27.60;64.80;;;;;;5144109;23;20009;-50
2023/03/03 03:26:33;;;;;;;2.28;0.50;;;27.60;64.80;;;;;;5142165;23;20058;-44
2023/03/03 03:28:55;;;;;;;0.85;0.40;;;27.60;64.70;;;;;;5144485;23;20427;-46
2023/03/03 03:31:19;;;;;;;1.30;0.40;;;27.60;64.50;;;;;;5145561;23;20046;-44
2023/03/03 03:33:42;;;;;;;0.45;0.40;;;27.70;64.40;;;;;;5145119;23;20013;-42
2023/03/03 03:36:05;;;;;;;1.00;0.65;;;27.70;64.40;;;;;;5144847;23;20056;-41
2023/03/03 03:38:28;;;;;;;0.52;0.30;;;27.70;64.40;;;;;;5145183;23;20012;-44
2023/03/03 03:40:51;;;;;;;2.55;0.70;;;27.70;64.40;;;;;;5145848;23;20025;-43
2023/03/03 03:43:13;;;;;;;0.60;0.40;;;27.80;64.20;;;;;;5144299;23;20099;-46
2023/03/03 03:45:36;;;;;;;1.40;0.50;;;27.80;64.20;;;;;;5142202;23;20012;-46
2023/03/03 03:47:59;;;;;;;0.50;0.30;;;27.80;64.20;;;;;;5143018;23;20097;-45
2023/03/03 03:50:21;;;;;;;0.63;0.37;;;27.80;64.10;;;;;;5142236;23;20008;-48
2023/03/03 03:52:43;;;;;;;2.53;0.45;;;27.80;64.10;;;;;;5137740;23;20471;-47
2023/03/03 03:55:06;;;;;;;13.50;1.58;;;27.80;64.30;;;;;;5145221;23;20055;-49
2023/03/03 03:57:29;;;;;;;11.30;2.17;;;27.80;64.20;;;;;;5145035;23;20067;-42
2023/03/03 03:59:51;;;;;;;18.80;2.08;;;27.80;64.30;;;;;;5139953;23;20048;-41
2023/03/03 04:02:14;;;;;;;7.65;1.75;;;27.80;64.30;;;;;;5139114;23;20040;-42
2023/03/03 04:04:36;;;;;;;6.45;1.23;;;27.80;64.50;;;;;;5143006;23;20018;-47
2023/03/03 04:06:58;;;;;;;10.57;1.40;;;27.70;64.70;;;;;;5144819;23;20363;-50
2023/03/03 04:09:21;;;;;;;10.52;1.60;;;27.70;64.70;;;;;;5141588;23;20398;-49
2023/03/03 04:11:43;;;;;;;7.53;1.42;;;27.80;65.00;;;;;;5141179;23;20405;-48
2023/03/03 04:14:06;;;;;;;4.70;0.82;;;27.80;64.00;;;;;;5139082;23;20021;-49
2023/03/03 04:16:29;;;;;;;1.27;0.60;;;27.70;63.40;;;;;;5141360;23;20033;-48
2023/03/03 04:18:51;;;;;;;1.92;0.63;;;27.70;63.30;;;;;;5140453;23;20460;-47
2023/03/03 04:21:15;;;;;;;3.67;0.75;;;27.70;63.20;;;;;;5141721;23;20061;-50
2023/03/03 04:23:37;;;;;;;2.17;0.80;;;27.60;63.20;;;;;;5134431;23;20023;-46
2023/03/03 04:26:00;;;;;;;1.13;0.47;;;27.60;63.10;;;;;;5141271;23;20020;-47
2023/03/03 04:28:24;;;;;;;2.97;0.60;;;27.60;63.00;;;;;;5141898;23;20249;-48
2023/03/03 04:30:46;;;;;;;0.93;0.40;;;27.50;62.80;;;;;;5143113;23;20095;-44
2023/03/03 04:33:09;;;;;;;2.40;0.77;;;27.50;62.90;;;;;;5142000;23;20020;-48
2023/03/03 04:35:31;;;;;;;2.35;0.75;;;27.50;63.10;;;;;;5140177;23;20016;-50
2023/03/03 04:37:54;;;;;;;0.90;0.55;;;27.40;63.20;;;;;;5141863;23;20028;-50
2023/03/03 04:40:17;;;;;;;1.42;0.40;;;27.40;63.50;;;;;;5141667;23;20009;-46
2023/03/03 04:42:39;;;;;;;1.10;0.38;;;27.40;63.50;;;;;;5134350;23;20331;-48
2023/03/03 04:45:02;;;;;;;1.52;0.80;;;27.40;63.50;;;;;;5143230;23;20012;-50
2023/03/03 04:47:24;;;;;;;2.67;0.60;;;27.40;63.50;;;;;;5141484;23;20351;-45
2023/03/03 04:49:47;;;;;;;2.97;1.00;;;27.40;63.60;;;;;;5145489;23;20016;-46
2023/03/03 04:52:09;;;;;;;0.82;0.60;;;27.40;63.80;;;;;;5143006;23;20024;-48
2023/03/03 04:54:32;;;;;;;2.60;0.60;;;27.40;63.80;;;;;;5131899;23;20016;-45
2023/03/03 04:56:54;;;;;;;2.15;0.77;;;27.30;63.80;;;;;;5144722;23;20056;-47
2023/03/03 04:59:17;;;;;;;1.55;0.50;;;27.30;64.00;;;;;;5144906;23;20016;-46
2023/03/03 05:01:39;;;;;;;1.40;0.68;;;27.30;64.10;;;;;;5138103;23;20021;-45
2023/03/03 05:04:02;;;;;;;7.20;0.93;;;27.20;64.80;;;;;;5127688;23;20044;-46
2023/03/03 05:06:24;;;;;;;3.78;0.70;;;27.30;65.30;;;;;;5139987;23;20016;-45
2023/03/03 05:08:47;;;;;;;4.10;0.70;;;27.30;65.50;;;;;;5140066;23;20775;-46
2023/03/03 05:11:09;;;;;;;2.67;0.70;;;27.50;65.60;;;;;;5140896;23;20026;-48
2023/03/03 05:13:32;;;;;;;3.28;0.80;;;27.50;65.40;;;;;;5139624;23;20094;-47
2023/03/03 05:15:56;;;;;;;1.25;0.52;;;27.50;65.20;;;;;;5139599;23;20102;-45
2023/03/03 05:18:19;;;;;;;3.65;0.60;;;27.50;65.10;;;;;;5138563;23;20035;-45
2023/03/03 05:20:42;;;;;;;3.40;1.20;;;27.60;65.00;;;;;;5140848;23;20052;-49
2023/03/03 05:23:04;;;;;;;1.15;0.50;;;27.60;65.10;;;;;;5139199;23;20008;-51
2023/03/03 05:25:27;;;;;;;5.22;1.48;;;27.60;65.00;;;;;;5141661;23;20071;-46
2023/03/03 05:27:49;;;;;;;8.93;1.65;;;27.70;65.10;;;;;;5133058;23;20042;-48
2023/03/03 05:30:12;;;;;;;7.75;1.40;;;27.80;65.30;;;;;;5142365;23;20028;-53
2023/03/03 05:32:35;;;;;;;4.22;1.15;;;27.80;65.00;;;;;;5138860;23;20082;-48
2023/03/03 05:34:57;;;;;;;1.52;1.15;;;27.90;64.90;;;;;;5141443;23;20359;-52
2023/03/03 05:37:20;;;;;;;1.52;0.63;;;27.90;64.60;;;;;;5139296;23;20111;-52
2023/03/03 05:39:43;;;;;;;2.65;0.52;;;27.90;64.50;;;;;;5141131;23;20012;-57
2023/03/03 05:42:06;;;;;;;4.93;0.70;;;27.90;64.50;;;;;;5140902;23;20043;-47
2023/03/03 05:44:28;;;;;;;2.42;0.60;;;28.00;64.60;;;;;;5139113;23;20020;-51
2023/03/03 05:46:51;;;;;;;2.95;0.65;;;28.00;64.60;;;;;;5141294;23;20024;-49
2023/03/03 05:49:13;;;;;;;1.80;0.95;;;28.10;64.50;;;;;;5139830;23;20610;-49
2023/03/03 05:51:35;;;;;;;1.95;0.43;;;28.10;64.30;;;;;;5139606;23;20059;-52
2023/03/03 05:53:58;;;;;;;0.95;0.47;;;28.20;64.40;;;;;;5140330;23;20142;-52
2023/03/03 05:56:20;;;;;;;2.92;0.65;;;28.20;64.30;;;;;;5141546;23;20028;-48
2023/03/03 05:58:43;;;;;;;1.88;0.60;;;28.30;64.20;;;;;;5139589;23;20036;-49
2023/03/03 06:01:05;;;;;;;3.85;1.17;;;28.40;64.10;;;;;;5140481;23;20382;-52
2023/03/03 06:03:28;;;;;;;2.35;0.30;;;28.40;63.90;;;;;;5139383;23;20490;-50
2023/03/03 06:05:50;;;;;;;1.05;0.30;;;28.40;63.90;;;;;;5131880;23;20017;-48
2023/03/03 06:08:12;;;;;;;2.78;0.40;;;28.40;63.90;;;;;;5140954;23;20064;-51
2023/03/03 06:10:35;;;;;;;1.25;0.68;;;28.40;63.90;;;;;;5139730;23;20055;-50
2023/03/03 06:12:58;;;;;;;2.23;0.63;;;28.40;64.00;;;;;;5141160;23;20066;-52
2023/03/03 06:15:22;;;;;;;6.32;1.08;;;28.40;64.00;;;;;;5139801;23;20012;-49
2023/03/03 06:17:44;;;;;;;1.17;0.45;;;28.40;64.10;;;;;;5137712;23;20059;-54
2023/03/03 06:20:07;;;;;;;0.50;0.30;;;28.40;64.00;;;;;;5140175;23;20012;-52
2023/03/03 06:22:30;;;;;;;0.60;0.60;;;28.40;63.90;;;;;;5140480;23;20066;-49
2023/03/03 06:24:52;;;;;;;0.47;0.38;;;28.50;63.90;;;;;;5140587;23;20126;-50
2023/03/03 06:27:15;;;;;;;8.88;1.23;;;28.50;64.00;;;;;;5139981;23;20354;-48
2023/03/03 06:29:37;;;;;;;1.77;0.43;;;28.50;64.00;;;;;;5140115;23;20059;-51
2023/03/03 06:32:00;;;;;;;2.70;0.60;;;28.40;64.00;;;;;;5138971;23;20078;-51
2023/03/03 06:34:22;;;;;;;11.02;1.13;;;28.40;64.10;;;;;;5139192;23;20071;-46
2023/03/03 06:36:45;;;;;;;9.13;1.88;;;28.40;64.40;;;;;;5132333;23;20020;-46
2023/03/03 06:39:08;;;;;;;5.43;1.15;;;28.40;64.40;;;;;;5126670;23;20120;-48
2023/03/03 06:41:30;;;;;;;2.58;0.77;;;28.40;64.30;;;;;;5129702;23;20020;-47
2023/03/03 06:43:52;;;;;;;8.23;1.77;;;28.40;64.30;;;;;;5139678;23;20087;-48
2023/03/03 06:46:18;;;;;;;15.52;2.50;;;28.40;64.40;;;;;;5132992;23;20316;-45
2023/03/03 06:48:40;;;;;;;18.05;3.05;;;28.40;64.50;;;;;;5131775;23;20019;-50
2023/03/03 06:51:22;;;;;;;11.88;2.38;;;28.40;64.70;;;;;;5131103;23;20023;-47
2023/03/03 06:53:44;;;;;;;15.98;2.80;;;28.40;64.70;;;;;;5131521;23;20121;-49
2023/03/03 06:56:09;;;;;;;25.45;2.63;;;28.40;64.80;;;;;;5132046;23;20024;-47
2023/03/03 06:58:35;;;;;;;7.80;2.40;;;28.30;64.20;;;;;;5029881;22;2338258;-51
2023/03/03 07:00:59;;;;;;;4.82;1.80;;;28.30;64.10;;;;;;5109800;23;20107;-51
2023/03/03 07:03:28;;;;;;;2.78;1.60;;;28.20;64.10;;;;;;5108505;23;20103;-52
2023/03/03 07:05:52;;;;;;;2.80;1.58;;;28.20;64.40;;;;;;5112271;23;20598;-52
2023/03/03 07:08:24;;;;;;;6.25;1.60;;;28.20;64.80;;;;;;5103372;23;20009;-52
2023/03/03 07:10:48;;;;;;;4.55;1.75;;;28.10;64.90;;;;;;5112809;23;20099;-49
2023/03/03 07:13:20;;;;;;;4.00;1.67;;;28.20;65.20;;;;;;5111372;23;20075;-53
2023/03/03 07:15:42;;;;;;;3.25;1.30;;;28.20;65.30;;;;;;5113192;23;20115;-49
2023/03/03 07:18:39;;;;;;;2.05;1.35;;;28.20;65.50;;;;;;5112449;23;20459;-50
2023/03/03 07:21:38;;;;;;;2.95;1.38;;;28.20;65.60;;;;;;5099183;23;20503;-49
2023/03/03 07:24:28;;;;;;;2.17;1.40;;;28.20;65.50;;;;;;5112807;23;20440;-47
2023/03/03 07:26:51;;;;;;;2.75;1.60;;;28.20;65.60;;;;;;5105272;23;20075;-48
2023/03/03 07:29:27;;;;;;;2.53;1.60;;;28.10;65.50;;;;;;5113364;23;20021;-52
2023/03/03 07:31:50;;;;;;;2.70;1.60;;;28.10;65.40;;;;;;5113308;23;20092;-48
2023/03/03 07:34:26;;;;;;;2.42;1.50;;;28.10;65.40;;;;;;5103005;23;20466;-51
2023/03/03 07:36:58;;;;;;;3.67;1.92;;;28.10;65.40;;;;;;5112294;23;20025;-49
2023/03/03 07:39:42;;;;;;;3.80;1.50;;;28.10;65.30;;;;;;5104258;23;20009;-44
2023/03/03 07:42:20;;;;;;;2.70;1.70;;;28.10;65.40;;;;;;5111269;23;20664;-49
2023/03/03 07:44:44;;;;;;;3.65;1.30;;;28.10;65.50;;;;;;5105311;23;20017;-45
2023/03/03 07:47:29;;;;;;;1.83;1.17;;;28.10;65.50;;;;;;5112724;23;20049;-48
2023/03/03 07:50:00;;;;;;;2.05;1.27;;;28.10;65.50;;;;;;5103848;23;20055;-48
2023/03/03 07:52:38;;;;;;;5.65;1.77;;;28.10;65.60;;;;;;5112144;23;20013;-49
2023/03/03 07:55:19;;;;;;;4.32;1.63;;;28.10;65.60;;;;;;5115009;23;20021;-47
2023/03/03 07:57:41;;;;;;;2.03;1.30;;;28.10;65.70;;;;;;5112703;23;20127;-48
2023/03/03 08:00:16;;;;;;;2.47;1.50;;;28.10;65.70;;;;;;5112888;23;20087;-50
2023/03/03 08:02:54;;;;;;;2.63;1.52;;;28.00;65.70;;;;;;5108843;23;20550;-50
2023/03/03 08:05:33;;;;;;;2.70;1.50;;;28.10;65.60;;;;;;5112654;23;20472;-52
2023/03/03 08:08:21;;;;;;;3.80;1.45;;;28.10;65.60;;;;;;5112571;23;20016;-49
2023/03/03 08:10:51;;;;;;;2.53;1.50;;;28.10;65.50;;;;;;5104698;23;20088;-51
2023/03/03 08:13:18;;;;;;;2.25;1.40;;;28.10;65.40;;;;;;5112233;23;20047;-50
2023/03/03 08:15:41;;;;;;;1.40;1.05;;;28.10;65.50;;;;;;5104441;23;20017;-52
2023/03/03 08:18:22;;;;;;;2.30;1.40;;;28.10;65.50;;;;;;5112148;23;20413;-54
2023/03/03 08:20:47;;;;;;;2.28;1.40;;;28.10;65.50;;;;;;5104506;23;20454;-51
2023/03/03 08:23:09;;;;;;;3.33;1.27;;;28.10;65.50;;;;;;5104339;23;20031;-53
2023/03/03 08:25:32;;;;;;;4.00;1.23;;;28.10;65.60;;;;;;5112183;23;20064;-53
2023/03/03 08:27:54;;;;;;;2.53;1.17;;;28.10;65.60;;;;;;5112556;23;20048;-53
2023/03/03 08:30:17;;;;;;;5.07;2.15;;;28.10;65.60;;;;;;5110830;23;20359;-50
2023/03/03 08:32:39;;;;;;;8.40;2.80;;;28.10;65.70;;;;;;5111270;23;20016;-54
2023/03/03 08:35:02;;;;;;;5.85;2.50;;;28.00;65.80;;;;;;5111907;23;20327;-54
2023/03/03 08:37:24;;;;;;;6.72;2.58;;;28.00;65.90;;;;;;5111334;23;20024;-46
2023/03/03 08:39:46;;;;;;;5.85;2.55;;;27.90;66.00;;;;;;5108718;23;20518;-59
2023/03/03 08:42:09;;;;;;;5.10;1.95;;;27.90;66.20;;;;;;5110336;23;20016;-59
2023/03/03 08:44:31;;;;;;;5.03;2.05;;;27.80;66.20;;;;;;5107782;23;20009;-56
2023/03/03 08:46:54;;;;;;;3.63;2.00;;;27.80;66.20;;;;;;5111386;23;20048;-57
2023/03/03 08:49:16;;;;;;;4.65;1.67;;;27.80;66.20;;;;;;5110510;23;20096;-60
2023/03/03 08:51:39;;;;;;;2.88;1.38;;;27.70;66.20;;;;;;5114737;23;20070;-60
2023/03/03 08:54:01;;;;;;;3.65;1.48;;;27.70;66.20;;;;;;5114508;23;20013;-55
2023/03/03 08:56:25;;;;;;;3.25;1.30;;;27.70;66.20;;;;;;5116627;23;20056;-54
2023/03/03 08:58:48;;;;;;;5.07;1.52;;;27.60;66.20;;;;;;5116816;23;20057;-57
2023/03/03 09:01:10;;;;;;;4.10;1.75;;;27.60;66.30;;;;;;5109085;23;20017;-54
2023/03/03 09:03:33;;;;;;;3.10;1.45;;;27.60;66.40;;;;;;5109495;23;20108;-56
2023/03/03 09:05:55;;;;;;;3.05;1.58;;;27.60;66.40;;;;;;5116422;23;20020;-56
2023/03/03 09:08:17;;;;;;;3.20;1.52;;;27.50;66.20;;;;;;5110215;23;20048;-60
2023/03/03 09:10:40;;;;;;;4.45;1.70;;;27.50;66.30;;;;;;5110162;23;20061;-56
2023/03/03 09:13:15;;;;;;;4.53;2.00;;;27.50;66.40;;;;;;5110445;23;20103;-54
2023/03/03 09:15:38;;;;;;;4.30;1.83;;;27.50;66.50;;;;;;5110056;23;20415;-57
2023/03/03 09:18:21;;;;;;;6.00;2.20;;;27.50;66.50;;;;;;5111187;23;20060;-54
2023/03/03 09:20:57;;;;;;;3.78;1.67;;;27.40;66.60;;;;;;5110842;23;20247;-60
2023/03/03 09:23:36;;;;;;;5.95;2.35;;;27.40;66.80;;;;;;5110990;23;20071;-53
2023/03/03 09:26:17;;;;;;;3.50;1.50;;;27.40;66.80;;;;;;5110635;23;20021;-57
2023/03/03 09:28:40;;;;;;;3.25;1.83;;;27.40;66.70;;;;;;5110626;23;20352;-54
2023/03/03 09:31:04;;;;;;;4.35;1.90;;;27.40;66.70;;;;;;5109786;23;20542;-61
2023/03/03 09:33:42;;;;;;;5.82;1.65;;;27.40;66.70;;;;;;5107602;23;20071;-50
2023/03/03 09:36:29;;;;;;;3.38;1.60;;;27.40;66.70;;;;;;5109298;23;20440;-52
2023/03/03 09:38:52;;;;;;;3.78;1.48;;;27.40;66.70;;;;;;5110214;23;20295;-54
2023/03/03 09:41:43;;;;;;;7.47;1.98;;;27.40;66.70;;;;;;5110079;23;20017;-53
2023/03/03 09:44:18;;;;;;;2.08;1.30;;;27.40;66.70;;;;;;5109846;23;20013;-52
2023/03/03 09:46:41;;;;;;;3.20;1.27;;;27.40;66.70;;;;;;5107061;23;20127;-56
2023/03/03 09:49:15;;;;;;;3.35;1.75;;;27.40;66.60;;;;;;5107680;23;20451;-58
2023/03/03 09:51:58;;;;;;;2.80;1.77;;;27.40;66.60;;;;;;5105458;23;20017;-57
2023/03/03 09:54:26;;;;;;;2.13;1.50;;;27.30;66.50;;;;;;5095740;23;20063;-55
2023/03/03 09:57:09;;;;;;;6.15;1.38;;;27.30;66.50;;;;;;5105396;23;20025;-55
2023/03/03 09:59:48;;;;;;;4.07;1.52;;;27.30;66.70;;;;;;5110095;23;20021;-58
2023/03/03 10:02:32;;;;;;;1.88;1.35;;;27.30;66.60;;;;;;5109178;23;20056;-57
2023/03/03 10:05:45;;;;;;;3.15;1.77;;;27.30;66.60;;;;;;5110689;23;20139;-58
2023/03/03 10:08:41;;;;;;;2.72;1.40;;;27.30;66.60;;;;;;5099851;23;20095;-57
2023/03/03 10:11:29;;;;;;;6.18;1.75;;;27.30;66.50;;;;;;5099938;23;20017;-55
2023/03/03 10:14:25;;;;;;;4.57;1.65;;;27.20;66.50;;;;;;5099558;23;20020;-59
2023/03/03 10:17:08;;;;;;;3.58;1.80;;;27.20;66.50;;;;;;5109941;23;20759;-55
2023/03/03 10:20:04;;;;;;;2.17;1.10;;;27.20;66.50;;;;;;5101170;23;20109;-49
2023/03/03 10:22:51;;;;;;;3.15;1.38;;;27.20;66.50;;;;;;5098537;23;20454;-68
2023/03/03 10:25:19;;;;;;;6.13;1.30;;;27.10;66.70;;;;;;5109468;23;20016;-61
2023/03/03 10:27:44;;;;;;;1.70;1.10;;;27.10;66.70;;;;;;5107061;23;20023;-64
2023/03/03 10:30:07;;;;;;;3.53;1.33;;;27.10;66.70;;;;;;5106445;23;20642;-58
2023/03/03 10:32:33;;;;;;;3.33;1.20;;;27.20;66.70;;;;;;5107016;23;20021;-59
2023/03/03 10:35:01;;;;;;;2.17;1.00;;;27.20;66.70;;;;;;5102764;23;20495;-56
2023/03/03 10:37:44;;;;;;;2.63;0.90;;;27.20;66.70;;;;;;5109749;23;20024;-60
2023/03/03 10:40:36;;;;;;;2.05;1.10;;;27.20;66.60;;;;;;5108569;23;20355;-54
2023/03/03 10:43:19;;;;;;;9.70;1.05;;;27.20;66.70;;;;;;5112290;23;20009;-54
2023/03/03 10:45:45;;;;;;;2.10;0.90;;;27.20;66.60;;;;;;5108572;23;20021;-51
2023/03/03 10:48:32;;;;;;;2.80;0.85;;;27.20;66.70;;;;;;5111972;23;20026;-52
2023/03/03 10:50:59;;;;;;;2.40;1.33;;;27.20;66.70;;;;;;5103839;23;20132;-50
2023/03/03 10:53:40;;;;;;;2.42;1.10;;;27.20;66.80;;;;;;5111880;23;20013;-48
2023/03/03 10:56:09;;;;;;;2.58;0.90;;;27.20;66.70;;;;;;5118276;23;20301;-58
2023/03/03 10:59:02;;;;;;;1.83;0.93;;;27.20;67.00;;;;;;5109233;23;20525;-54
2023/03/03 11:01:43;;;;;;;3.63;1.48;;;27.20;67.10;;;;;;5119461;23;20017;-58
2023/03/03 11:04:39;;;;;;;2.10;0.85;;;27.10;67.10;;;;;;5117923;23;20021;-51
2023/03/03 11:07:23;;;;;;;2.42;1.05;;;27.10;67.10;;;;;;5111432;23;20062;-59
2023/03/03 11:10:01;;;;;;;2.58;1.17;;;27.10;67.20;;;;;;5116605;23;20056;-55
2023/03/03 11:12:28;;;;;;;1.92;1.00;;;27.10;67.20;;;;;;5118092;23;20024;-54
2023/03/03 11:15:17;;;;;;;1.75;1.10;;;27.10;67.20;;;;;;5120308;23;20013;-58
2023/03/03 11:17:51;;;;;;;2.00;1.10;;;27.10;67.20;;;;;;5109738;23;20021;-57
2023/03/03 11:20:38;;;;;;;1.65;1.30;;;27.10;67.20;;;;;;5115548;23;20017;-54
2023/03/03 11:23:19;;;;;;;1.77;1.20;;;27.10;67.30;;;;;;5111628;23;20013;-58
2023/03/03 11:26:06;;;;;;;4.88;1.35;;;27.10;67.30;;;;;;5114942;23;20052;-57
2023/03/03 11:28:49;;;;;;;3.70;1.25;;;27.10;67.30;;;;;;5118214;23;20017;-56
2023/03/03 11:31:30;;;;;;;2.47;1.20;;;27.10;67.30;;;;;;5119526;23;20013;-56
2023/03/03 11:34:12;;;;;;;2.40;1.10;;;27.10;67.30;;;;;;5118673;23;20020;-54
2023/03/03 11:36:42;;;;;;;2.03;1.20;;;27.10;67.20;;;;;;5118813;23;20024;-47
2023/03/03 11:39:10;;;;;;;1.60;0.90;;;27.10;67.20;;;;;;5117909;23;20013;-61
2023/03/03 11:42:17;;;;;;;3.13;1.30;;;27.10;67.20;;;;;;5121242;23;20426;-60
2023/03/03 11:45:14;;;;;;;1.80;1.35;;;27.00;66.80;;;;;;5097700;23;20063;-50
2023/03/03 11:48:02;;;;;;;2.70;1.38;;;27.00;66.90;;;;;;5099519;23;20020;-51
2023/03/03 11:50:24;;;;;;;2.33;1.33;;;27.00;66.80;;;;;;5119673;23;20059;-51
2023/03/03 11:53:24;;;;;;;1.73;1.20;;;27.00;66.90;;;;;;5115670;23;20051;-56
2023/03/03 11:55:52;;;;;;;3.45;1.48;;;27.00;66.90;;;;;;5116861;23;20122;-57
2023/03/03 11:58:21;;;;;;;2.75;1.38;;;27.00;67.00;;;;;;5119544;23;20048;-56
2023/03/03 12:00:53;;;;;;;2.85;1.33;;;27.00;67.00;;;;;;5118667;23;20371;-56
2023/03/03 12:03:16;;;;;;;4.05;1.17;;;27.00;66.90;;;;;;5118456;23;20031;-57
2023/03/03 12:05:44;;;;;;;2.90;1.67;;;27.00;66.90;;;;;;5116291;23;20099;-59
2023/03/03 12:08:28;;;;;;;1.88;1.30;;;27.00;66.90;;;;;;5115850;23;20099;-59
2023/03/03 12:11:30;;;;;;;2.08;1.25;;;27.00;66.70;;;;;;5118614;23;20485;-59
2023/03/03 12:14:08;;;;;;;3.88;1.60;;;27.00;66.60;;;;;;5118012;23;20520;-52
2023/03/03 12:16:38;;;;;;;3.35;1.35;;;26.90;66.60;;;;;;5119121;23;20059;-52
2023/03/03 12:19:31;;;;;;;2.40;1.23;;;26.90;66.60;;;;;;5118516;23;20019;-50
2023/03/03 12:22:11;;;;;;;4.28;1.70;;;26.90;66.70;;;;;;5119116;23;20363;-55
2023/03/03 12:24:54;;;;;;;3.75;1.40;;;26.90;66.80;;;;;;5115884;23;20020;-53
2023/03/03 12:27:24;;;;;;;2.35;1.50;;;26.90;66.80;;;;;;5118212;23;20028;-51
2023/03/03 12:30:09;;;;;;;4.25;1.42;;;26.90;66.90;;;;;;5115259;23;20107;-53
2023/03/03 12:32:55;;;;;;;4.25;1.48;;;26.90;67.00;;;;;;5109076;23;20040;-55
2023/03/03 12:35:35;;;;;;;3.33;1.30;;;26.90;67.60;;;;;;5118709;23;20016;-49
2023/03/03 12:38:42;;;;;;;2.08;1.50;;;26.80;66.90;;;;;;5117666;23;20430;-50
2023/03/03 12:41:32;;;;;;;2.58;1.60;;;26.80;66.90;;;;;;5090559;23;20014;-55
2023/03/03 12:44:00;;;;;;;3.20;1.52;;;26.80;67.00;;;;;;5117425;23;20056;-50
2023/03/03 12:46:43;;;;;;;3.88;1.40;;;26.80;67.10;;;;;;5114564;23;20348;-55
2023/03/03 12:49:05;;;;;;;4.57;1.63;;;26.80;67.10;;;;;;5114213;23;20021;-56
2023/03/03 12:51:46;;;;;;;5.38;1.30;;;26.80;67.20;;;;;;5118594;23;20447;-57
2023/03/03 12:55:10;;;;;;;1.60;1.40;;;26.80;67.20;;;;;;5114571;23;20478;-57
2023/03/03 12:58:00;;;;;;;10.57;2.03;;;26.80;67.20;;;;;;5090076;23;20035;-51
2023/03/03 13:00:26;;;;;;;4.95;1.98;;;26.80;67.40;;;;;;5115110;23;20055;-53